sensor_id;sensor_type;location;lat;lon;timestamp;temperature;humidity
9201;DHT22;4635;48.686;9.008;2022-07-29T00:02:01;18.90;99.90
9201;DHT22;4635;48.686;9.008;2022-07-29T00:04:37;18.80;99.90
9201;DHT22;4635;48.686;9.008;2022-07-29T00:07:13;18.70;99.90
9201;DHT22;4635;48.686;9.008;2022-07-29T00:09:40;18.70;99.90
9201;DHT22;4635;48.686;9.008;2022-07-29T00:12:08;18.80;99.90
9201;DHT22;4635;48.686;9.008;2022-07-29T00:14:36;18.70;99.90
9201;DHT22;4635;48.686;9.008;2022-07-29T00:17:04;18.70;99.90
9201;DHT22;4635;48.686;9.008;2022-07-29T00:19:35;18.70;99.90
9201;DHT22;4635;48.686;9.008;2022-07-29T00:22:03;18.60;99.90
9201;DHT22;4635;48.686;9.008;2022-07-29T00:24:30;18.50;99.90
9201;DHT22;4635;48.686;9.008;2022-07-29T00:27:06;18.40;99.90
9201;DHT22;4635;48.686;9.008;2022-07-29T00:29:35;18.40;99.90
9201;DHT22;4635;48.686;9.008;2022-07-29T00:32:04;18.20;99.90
9201;DHT22;4635;48.686;9.008;2022-07-29T00:34:37;18.40;99.90
9201;DHT22;4635;48.686;9.008;2022-07-29T00:37:33;18.40;99.90
9201;DHT22;4635;48.686;9.008;2022-07-29T00:40:08;18.40;99.90
9201;DHT22;4635;48.686;9.008;2022-07-29T00:42:42;18.40;99.90
9201;DHT22;4635;48.686;9.008;2022-07-29T00:45:11;18.40;99.90
9201;DHT22;4635;48.686;9.008;2022-07-29T00:47:50;18.30;99.90
9201;DHT22;4635;48.686;9.008;2022-07-29T00:50:23;18.30;99.90
9201;DHT22;4635;48.686;9.008;2022-07-29T00:52:52;18.30;99.90
9201;DHT22;4635;48.686;9.008;2022-07-29T00:55:20;18.30;99.90
9201;DHT22;4635;48.686;9.008;2022-07-29T00:57:48;18.40;99.90
9201;DHT22;4635;48.686;9.008;2022-07-29T01:00:17;18.30;99.90
9201;DHT22;4635;48.686;9.008;2022-07-29T01:02:46;18.30;99.90
9201;DHT22;4635;48.686;9.008;2022-07-29T01:05:17;18.40;99.90
9201;DHT22;4635;48.686;9.008;2022-07-29T01:07:47;18.40;99.90
9201;DHT22;4635;48.686;9.008;2022-07-29T01:10:16;18.40;99.90
9201;DHT22;4635;48.686;9.008;2022-07-29T01:12:47;18.30;99.90
9201;DHT22;4635;48.686;9.008;2022-07-29T01:15:16;18.30;99.90
9201;DHT22;4635;48.686;9.008;2022-07-29T01:17:49;18.30;99.90
9201;DHT22;4635;48.686;9.008;2022-07-29T01:20:23;18.30;99.90
9201;DHT22;4635;48.686;9.008;2022-07-29T01:26:11;18.20;99.90
9201;DHT22;4635;48.686;9.008;2022-07-29T01:28:56;18.20;99.90
9201;DHT22;4635;48.686;9.008;2022-07-29T01:31:38;18.10;99.90
9201;DHT22;4635;48.686;9.008;2022-07-29T01:34:11;18.20;99.90
9201;DHT22;4635;48.686;9.008;2022-07-29T01:36:44;18.10;99.90
9201;DHT22;4635;48.686;9.008;2022-07-29T01:39:16;18.00;99.90
9201;DHT22;4635;48.686;9.008;2022-07-29T01:41:50;18.10;99.90
9201;DHT22;4635;48.686;9.008;2022-07-29T01:44:32;18.00;99.90
9201;DHT22;4635;48.686;9.008;2022-07-29T01:47:05;17.90;99.90
9201;DHT22;4635;48.686;9.008;2022-07-29T01:49:42;17.90;99.90
9201;DHT22;4635;48.686;9.008;2022-07-29T01:52:20;17.90;99.90
9201;DHT22;4635;48.686;9.008;2022-07-29T01:54:54;17.90;99.90
9201;DHT22;4635;48.686;9.008;2022-07-29T01:57:27;17.90;99.90
9201;DHT22;4635;48.686;9.008;2022-07-29T01:59:59;17.90;99.90
9201;DHT22;4635;48.686;9.008;2022-07-29T02:02:29;17.90;99.90
9201;DHT22;4635;48.686;9.008;2022-07-29T02:05:06;18.00;99.90
9201;DHT22;4635;48.686;9.008;2022-07-29T02:07:35;18.00;99.90
9201;DHT22;4635;48.686;9.008;2022-07-29T02:10:06;17.90;99.90
9201;DHT22;4635;48.686;9.008;2022-07-29T02:12:38;18.00;99.90
9201;DHT22;4635;48.686;9.008;2022-07-29T02:15:09;17.90;99.90
9201;DHT22;4635;48.686;9.008;2022-07-29T02:17:42;18.00;99.90
9201;DHT22;4635;48.686;9.008;2022-07-29T02:20:11;17.90;99.90
9201;DHT22;4635;48.686;9.008;2022-07-29T02:22:39;17.80;99.90
9201;DHT22;4635;48.686;9.008;2022-07-29T02:25:08;17.80;99.90
9201;DHT22;4635;48.686;9.008;2022-07-29T02:27:39;17.80;99.90
9201;DHT22;4635;48.686;9.008;2022-07-29T02:30:13;17.90;99.90
9201;DHT22;4635;48.686;9.008;2022-07-29T02:32:41;17.90;99.90
9201;DHT22;4635;48.686;9.008;2022-07-29T02:35:13;17.80;99.90
9201;DHT22;4635;48.686;9.008;2022-07-29T02:37:43;17.70;99.90
9201;DHT22;4635;48.686;9.008;2022-07-29T02:40:32;17.90;99.90
9201;DHT22;4635;48.686;9.008;2022-07-29T02:43:02;17.90;99.90
9201;DHT22;4635;48.686;9.008;2022-07-29T02:45:31;17.90;99.90
9201;DHT22;4635;48.686;9.008;2022-07-29T02:48:01;17.90;99.90
9201;DHT22;4635;48.686;9.008;2022-07-29T02:50:37;17.90;99.90
9201;DHT22;4635;48.686;9.008;2022-07-29T02:53:11;17.80;99.90
9201;DHT22;4635;48.686;9.008;2022-07-29T02:55:43;17.80;99.90
9201;DHT22;4635;48.686;9.008;2022-07-29T02:58:19;17.80;99.90
9201;DHT22;4635;48.686;9.008;2022-07-29T03:00:57;17.70;99.90
9201;DHT22;4635;48.686;9.008;2022-07-29T03:03:28;17.70;99.90
9201;DHT22;4635;48.686;9.008;2022-07-29T03:06:01;17.60;99.90
9201;DHT22;4635;48.686;9.008;2022-07-29T03:08:30;17.60;99.90
9201;DHT22;4635;48.686;9.008;2022-07-29T03:10:58;17.50;99.90
9201;DHT22;4635;48.686;9.008;2022-07-29T03:13:26;17.50;99.90
9201;DHT22;4635;48.686;9.008;2022-07-29T03:15:58;17.50;99.90
9201;DHT22;4635;48.686;9.008;2022-07-29T03:18:30;17.50;99.90
9201;DHT22;4635;48.686;9.008;2022-07-29T03:20:58;17.40;99.90
9201;DHT22;4635;48.686;9.008;2022-07-29T03:23:29;17.50;99.90
9201;DHT22;4635;48.686;9.008;2022-07-29T03:25:56;17.50;99.90
9201;DHT22;4635;48.686;9.008;2022-07-29T03:28:25;17.40;99.90
9201;DHT22;4635;48.686;9.008;2022-07-29T03:30:57;17.40;99.90
9201;DHT22;4635;48.686;9.008;2022-07-29T03:33:26;17.20;99.90
9201;DHT22;4635;48.686;9.008;2022-07-29T03:35:54;17.30;99.90
9201;DHT22;4635;48.686;9.008;2022-07-29T03:38:24;17.40;99.90
9201;DHT22;4635;48.686;9.008;2022-07-29T03:40:56;17.30;99.90
9201;DHT22;4635;48.686;9.008;2022-07-29T03:43:25;17.30;99.90
9201;DHT22;4635;48.686;9.008;2022-07-29T03:45:58;17.20;99.90
9201;DHT22;4635;48.686;9.008;2022-07-29T03:48:31;17.30;99.90
9201;DHT22;4635;48.686;9.008;2022-07-29T03:51:01;17.20;99.90
9201;DHT22;4635;48.686;9.008;2022-07-29T03:53:33;17.30;99.90
9201;DHT22;4635;48.686;9.008;2022-07-29T03:56:05;17.30;99.90
9201;DHT22;4635;48.686;9.008;2022-07-29T03:58:34;17.30;99.90
9201;DHT22;4635;48.686;9.008;2022-07-29T04:01:05;17.20;99.90
9201;DHT22;4635;48.686;9.008;2022-07-29T04:03:34;17.20;99.90
9201;DHT22;4635;48.686;9.008;2022-07-29T04:06:05;17.30;99.90
9201;DHT22;4635;48.686;9.008;2022-07-29T04:08:33;17.20;99.90
9201;DHT22;4635;48.686;9.008;2022-07-29T04:11:01;17.10;99.90
9201;DHT22;4635;48.686;9.008;2022-07-29T04:13:29;17.30;99.90
9201;DHT22;4635;48.686;9.008;2022-07-29T04:15:56;17.30;99.90
9201;DHT22;4635;48.686;9.008;2022-07-29T04:18:24;17.30;99.90
9201;DHT22;4635;48.686;9.008;2022-07-29T04:20:54;17.30;99.90
9201;DHT22;4635;48.686;9.008;2022-07-29T04:23:21;17.20;99.90
9201;DHT22;4635;48.686;9.008;2022-07-29T04:25:48;17.30;99.90
9201;DHT22;4635;48.686;9.008;2022-07-29T04:28:17;17.30;99.90
9201;DHT22;4635;48.686;9.008;2022-07-29T04:30:44;17.30;99.90
9201;DHT22;4635;48.686;9.008;2022-07-29T04:33:17;17.20;99.90
9201;DHT22;4635;48.686;9.008;2022-07-29T04:35:44;17.20;99.90
9201;DHT22;4635;48.686;9.008;2022-07-29T04:38:16;17.20;99.90
9201;DHT22;4635;48.686;9.008;2022-07-29T04:40:43;17.20;99.90
9201;DHT22;4635;48.686;9.008;2022-07-29T04:43:10;17.20;99.90
9201;DHT22;4635;48.686;9.008;2022-07-29T04:45:38;17.30;99.90
9201;DHT22;4635;48.686;9.008;2022-07-29T04:48:09;17.60;99.90
9201;DHT22;4635;48.686;9.008;2022-07-29T04:50:38;17.50;99.90
9201;DHT22;4635;48.686;9.008;2022-07-29T04:53:05;17.30;99.90
9201;DHT22;4635;48.686;9.008;2022-07-29T04:55:34;17.50;99.90
9201;DHT22;4635;48.686;9.008;2022-07-29T04:58:02;17.60;99.90
9201;DHT22;4635;48.686;9.008;2022-07-29T05:00:29;17.60;99.90
9201;DHT22;4635;48.686;9.008;2022-07-29T05:02:57;17.70;99.90
9201;DHT22;4635;48.686;9.008;2022-07-29T05:05:24;17.70;99.90
9201;DHT22;4635;48.686;9.008;2022-07-29T05:07:51;17.80;99.90
9201;DHT22;4635;48.686;9.008;2022-07-29T05:10:19;17.90;99.90
9201;DHT22;4635;48.686;9.008;2022-07-29T05:12:48;17.90;99.90
9201;DHT22;4635;48.686;9.008;2022-07-29T05:15:16;18.00;99.90
9201;DHT22;4635;48.686;9.008;2022-07-29T05:17:47;18.00;99.90
9201;DHT22;4635;48.686;9.008;2022-07-29T05:20:19;18.00;99.90
9201;DHT22;4635;48.686;9.008;2022-07-29T05:22:52;18.40;99.90
9201;DHT22;4635;48.686;9.008;2022-07-29T05:25:20;18.20;99.90
9201;DHT22;4635;48.686;9.008;2022-07-29T05:27:49;18.30;99.90
9201;DHT22;4635;48.686;9.008;2022-07-29T05:30:17;18.40;99.90
9201;DHT22;4635;48.686;9.008;2022-07-29T05:32:50;18.40;99.90
9201;DHT22;4635;48.686;9.008;2022-07-29T05:35:19;18.50;99.90
9201;DHT22;4635;48.686;9.008;2022-07-29T05:37:46;18.50;99.90
9201;DHT22;4635;48.686;9.008;2022-07-29T05:40:17;18.50;99.90
9201;DHT22;4635;48.686;9.008;2022-07-29T05:42:44;18.70;99.90
9201;DHT22;4635;48.686;9.008;2022-07-29T05:45:16;18.90;99.90
9201;DHT22;4635;48.686;9.008;2022-07-29T05:47:46;19.00;99.90
9201;DHT22;4635;48.686;9.008;2022-07-29T05:50:17;19.00;99.90
9201;DHT22;4635;48.686;9.008;2022-07-29T05:52:45;19.00;99.90
9201;DHT22;4635;48.686;9.008;2022-07-29T05:55:12;19.00;99.90
9201;DHT22;4635;48.686;9.008;2022-07-29T05:57:43;19.00;99.90
9201;DHT22;4635;48.686;9.008;2022-07-29T06:00:12;19.20;99.90
9201;DHT22;4635;48.686;9.008;2022-07-29T06:02:40;19.30;99.90
9201;DHT22;4635;48.686;9.008;2022-07-29T06:05:11;19.40;99.90
9201;DHT22;4635;48.686;9.008;2022-07-29T06:07:44;19.50;99.90
9201;DHT22;4635;48.686;9.008;2022-07-29T06:10:12;19.50;99.90
9201;DHT22;4635;48.686;9.008;2022-07-29T06:12:44;19.70;99.90
9201;DHT22;4635;48.686;9.008;2022-07-29T06:15:14;19.90;99.90
9201;DHT22;4635;48.686;9.008;2022-07-29T06:17:45;20.00;99.90
9201;DHT22;4635;48.686;9.008;2022-07-29T06:20:13;20.00;99.90
9201;DHT22;4635;48.686;9.008;2022-07-29T06:22:45;20.00;99.90
9201;DHT22;4635;48.686;9.008;2022-07-29T06:25:31;20.30;99.90
9201;DHT22;4635;48.686;9.008;2022-07-29T06:28:15;21.20;99.90
9201;DHT22;4635;48.686;9.008;2022-07-29T06:30:42;22.10;99.90
9201;DHT22;4635;48.686;9.008;2022-07-29T06:33:19;22.70;1.00
9201;DHT22;4635;48.686;9.008;2022-07-29T06:36:00;22.80;99.90
9201;DHT22;4635;48.686;9.008;2022-07-29T06:38:37;22.30;99.90
9201;DHT22;4635;48.686;9.008;2022-07-29T06:41:10;22.00;99.90
9201;DHT22;4635;48.686;9.008;2022-07-29T06:43:48;22.00;99.90
9201;DHT22;4635;48.686;9.008;2022-07-29T06:46:18;20.90;99.90
9201;DHT22;4635;48.686;9.008;2022-07-29T06:48:53;21.60;99.90
9201;DHT22;4635;48.686;9.008;2022-07-29T06:51:21;21.70;99.90
9201;DHT22;4635;48.686;9.008;2022-07-29T06:53:53;21.60;99.90
9201;DHT22;4635;48.686;9.008;2022-07-29T06:56:27;21.70;99.90
9201;DHT22;4635;48.686;9.008;2022-07-29T06:59:03;21.80;99.90
9201;DHT22;4635;48.686;9.008;2022-07-29T07:01:32;21.70;99.90
9201;DHT22;4635;48.686;9.008;2022-07-29T07:04:14;21.60;99.90
9201;DHT22;4635;48.686;9.008;2022-07-29T07:06:54;21.70;99.90
9201;DHT22;4635;48.686;9.008;2022-07-29T07:09:36;21.90;99.90
9201;DHT22;4635;48.686;9.008;2022-07-29T07:12:13;22.00;99.90
9201;DHT22;4635;48.686;9.008;2022-07-29T07:15:06;22.10;99.90
9201;DHT22;4635;48.686;9.008;2022-07-29T07:17:34;22.00;99.90
9201;DHT22;4635;48.686;9.008;2022-07-29T07:20:37;22.00;99.90
9201;DHT22;4635;48.686;9.008;2022-07-29T07:23:09;21.90;99.90
9201;DHT22;4635;48.686;9.008;2022-07-29T07:25:52;21.80;99.90
9201;DHT22;4635;48.686;9.008;2022-07-29T07:28:41;21.90;99.90
9201;DHT22;4635;48.686;9.008;2022-07-29T07:31:21;21.90;99.90
9201;DHT22;4635;48.686;9.008;2022-07-29T07:40:31;22.70;99.90
9201;DHT22;4635;48.686;9.008;2022-07-29T07:43:14;23.00;99.90
9201;DHT22;4635;48.686;9.008;2022-07-29T07:45:56;23.20;1.00
9201;DHT22;4635;48.686;9.008;2022-07-29T07:48:37;23.20;1.00
9201;DHT22;4635;48.686;9.008;2022-07-29T07:51:07;23.30;99.90
9201;DHT22;4635;48.686;9.008;2022-07-29T07:53:43;23.20;99.90
9201;DHT22;4635;48.686;9.008;2022-07-29T07:56:47;23.10;99.90
9201;DHT22;4635;48.686;9.008;2022-07-29T07:59:25;23.00;99.90
9201;DHT22;4635;48.686;9.008;2022-07-29T08:02:05;22.90;1.00
9201;DHT22;4635;48.686;9.008;2022-07-29T08:04:36;22.70;1.00
9201;DHT22;4635;48.686;9.008;2022-07-29T08:07:07;22.90;1.00
9201;DHT22;4635;48.686;9.008;2022-07-29T08:09:37;23.30;99.90
9201;DHT22;4635;48.686;9.008;2022-07-29T08:12:21;23.50;99.90
9201;DHT22;4635;48.686;9.008;2022-07-29T08:18:08;24.40;99.90
9201;DHT22;4635;48.686;9.008;2022-07-29T08:20:54;24.80;98.10
9201;DHT22;4635;48.686;9.008;2022-07-29T08:23:46;25.10;57.90
9201;DHT22;4635;48.686;9.008;2022-07-29T08:26:23;25.80;28.00
9201;DHT22;4635;48.686;9.008;2022-07-29T08:32:20;27.80;1.00
9201;DHT22;4635;48.686;9.008;2022-07-29T08:34:59;28.50;1.00
9201;DHT22;4635;48.686;9.008;2022-07-29T08:40:32;29.30;99.90
9201;DHT22;4635;48.686;9.008;2022-07-29T08:43:05;29.20;1.00
9201;DHT22;4635;48.686;9.008;2022-07-29T08:45:42;29.80;48.90
9201;DHT22;4635;48.686;9.008;2022-07-29T08:48:26;29.80;1.00
9201;DHT22;4635;48.686;9.008;2022-07-29T08:51:15;30.60;1.00
9201;DHT22;4635;48.686;9.008;2022-07-29T08:54:03;31.70;17.80
9201;DHT22;4635;48.686;9.008;2022-07-29T08:56:49;31.90;99.90
9201;DHT22;4635;48.686;9.008;2022-07-29T08:59:44;32.00;99.90
9201;DHT22;4635;48.686;9.008;2022-07-29T09:02:36;32.20;1.00
9201;DHT22;4635;48.686;9.008;2022-07-29T09:09:18;31.10;29.50
9201;DHT22;4635;48.686;9.008;2022-07-29T09:12:07;31.80;1.00
9201;DHT22;4635;48.686;9.008;2022-07-29T09:14:51;32.10;34.70
9201;DHT22;4635;48.686;9.008;2022-07-29T09:17:45;31.80;1.00
9201;DHT22;4635;48.686;9.008;2022-07-29T09:20:29;31.90;1.00
9201;DHT22;4635;48.686;9.008;2022-07-29T09:23:14;32.20;1.00
9201;DHT22;4635;48.686;9.008;2022-07-29T09:26:11;32.90;96.50
9201;DHT22;4635;48.686;9.008;2022-07-29T09:28:56;33.70;1.00
9201;DHT22;4635;48.686;9.008;2022-07-29T09:31:52;33.60;1.00
9201;DHT22;4635;48.686;9.008;2022-07-29T09:34:37;33.10;1.00
9201;DHT22;4635;48.686;9.008;2022-07-29T09:37:36;33.30;1.00
9201;DHT22;4635;48.686;9.008;2022-07-29T09:40:40;32.70;1.00
9201;DHT22;4635;48.686;9.008;2022-07-29T09:43:16;31.40;1.00
9201;DHT22;4635;48.686;9.008;2022-07-29T09:46:32;31.90;1.00
9201;DHT22;4635;48.686;9.008;2022-07-29T09:49:13;31.50;1.00
9201;DHT22;4635;48.686;9.008;2022-07-29T09:52:09;31.60;1.00
9201;DHT22;4635;48.686;9.008;2022-07-29T09:55:04;30.80;1.00
9201;DHT22;4635;48.686;9.008;2022-07-29T09:58:19;30.40;1.00
9201;DHT22;4635;48.686;9.008;2022-07-29T10:00:54;31.30;1.00
9201;DHT22;4635;48.686;9.008;2022-07-29T10:04:09;32.50;1.00
9201;DHT22;4635;48.686;9.008;2022-07-29T10:07:01;33.00;1.00
9201;DHT22;4635;48.686;9.008;2022-07-29T10:09:52;33.70;1.00
9201;DHT22;4635;48.686;9.008;2022-07-29T10:12:29;34.30;1.00
9201;DHT22;4635;48.686;9.008;2022-07-29T10:15:23;34.90;1.00
9201;DHT22;4635;48.686;9.008;2022-07-29T10:18:09;35.50;1.00
9201;DHT22;4635;48.686;9.008;2022-07-29T10:21:16;32.70;1.00
9201;DHT22;4635;48.686;9.008;2022-07-29T10:23:55;30.80;1.00
9201;DHT22;4635;48.686;9.008;2022-07-29T10:26:26;30.10;1.00
9201;DHT22;4635;48.686;9.008;2022-07-29T10:29:40;29.50;1.00
9201;DHT22;4635;48.686;9.008;2022-07-29T10:32:46;28.10;1.00
9201;DHT22;4635;48.686;9.008;2022-07-29T10:35:35;26.10;1.00
9201;DHT22;4635;48.686;9.008;2022-07-29T10:38:30;24.50;1.00
9201;DHT22;4635;48.686;9.008;2022-07-29T10:41:18;23.40;1.00
9201;DHT22;4635;48.686;9.008;2022-07-29T10:44:03;22.70;1.00
9201;DHT22;4635;48.686;9.008;2022-07-29T10:46:35;21.70;1.00
9201;DHT22;4635;48.686;9.008;2022-07-29T10:49:16;21.00;1.00
9201;DHT22;4635;48.686;9.008;2022-07-29T10:52:13;20.50;1.00
9201;DHT22;4635;48.686;9.008;2022-07-29T10:54:59;20.10;99.90
9201;DHT22;4635;48.686;9.008;2022-07-29T10:57:36;19.70;99.90
9201;DHT22;4635;48.686;9.008;2022-07-29T11:00:29;19.50;99.90
9201;DHT22;4635;48.686;9.008;2022-07-29T11:03:09;19.20;99.90
9201;DHT22;4635;48.686;9.008;2022-07-29T11:05:54;19.30;99.90
9201;DHT22;4635;48.686;9.008;2022-07-29T11:08:32;19.20;99.90
9201;DHT22;4635;48.686;9.008;2022-07-29T11:14:17;19.00;99.90
9201;DHT22;4635;48.686;9.008;2022-07-29T11:17:07;18.70;99.90
9201;DHT22;4635;48.686;9.008;2022-07-29T11:19:34;18.90;99.90
9201;DHT22;4635;48.686;9.008;2022-07-29T11:22:10;19.00;99.90
9201;DHT22;4635;48.686;9.008;2022-07-29T11:24:38;18.90;99.90
9201;DHT22;4635;48.686;9.008;2022-07-29T11:27:15;18.90;99.90
9201;DHT22;4635;48.686;9.008;2022-07-29T11:29:55;19.10;99.90
9201;DHT22;4635;48.686;9.008;2022-07-29T11:32:44;19.20;99.90
9201;DHT22;4635;48.686;9.008;2022-07-29T11:35:22;19.10;99.90
9201;DHT22;4635;48.686;9.008;2022-07-29T11:38:25;19.10;99.90
9201;DHT22;4635;48.686;9.008;2022-07-29T11:41:26;19.20;99.90
9201;DHT22;4635;48.686;9.008;2022-07-29T11:44:01;19.30;99.90
9201;DHT22;4635;48.686;9.008;2022-07-29T11:46:47;19.00;99.90
9201;DHT22;4635;48.686;9.008;2022-07-29T11:49:26;19.10;99.90
9201;DHT22;4635;48.686;9.008;2022-07-29T11:51:58;19.10;99.90
9201;DHT22;4635;48.686;9.008;2022-07-29T11:54:33;19.20;99.90
9201;DHT22;4635;48.686;9.008;2022-07-29T11:57:01;19.30;99.90
9201;DHT22;4635;48.686;9.008;2022-07-29T11:59:31;19.50;99.90
9201;DHT22;4635;48.686;9.008;2022-07-29T12:02:38;19.80;99.90
9201;DHT22;4635;48.686;9.008;2022-07-29T12:05:14;20.10;99.90
9201;DHT22;4635;48.686;9.008;2022-07-29T12:07:43;20.50;99.90
9201;DHT22;4635;48.686;9.008;2022-07-29T12:10:12;20.80;99.90
9201;DHT22;4635;48.686;9.008;2022-07-29T12:12:42;21.20;99.90
9201;DHT22;4635;48.686;9.008;2022-07-29T12:15:32;21.40;99.90
9201;DHT22;4635;48.686;9.008;2022-07-29T12:18:16;21.70;99.90
9201;DHT22;4635;48.686;9.008;2022-07-29T12:20:48;22.50;99.90
9201;DHT22;4635;48.686;9.008;2022-07-29T12:23:21;22.80;99.90
9201;DHT22;4635;48.686;9.008;2022-07-29T12:25:53;22.80;99.90
9201;DHT22;4635;48.686;9.008;2022-07-29T12:28:23;22.60;99.90
9201;DHT22;4635;48.686;9.008;2022-07-29T12:30:58;22.40;99.90
9201;DHT22;4635;48.686;9.008;2022-07-29T12:33:27;22.30;99.90
9201;DHT22;4635;48.686;9.008;2022-07-29T12:36:06;22.20;99.90
9201;DHT22;4635;48.686;9.008;2022-07-29T12:38:44;21.90;99.90
9201;DHT22;4635;48.686;9.008;2022-07-29T12:41:16;21.90;99.90
9201;DHT22;4635;48.686;9.008;2022-07-29T12:43:52;21.40;99.90
9201;DHT22;4635;48.686;9.008;2022-07-29T12:46:23;21.30;99.90
9201;DHT22;4635;48.686;9.008;2022-07-29T12:48:55;21.40;99.90
9201;DHT22;4635;48.686;9.008;2022-07-29T12:51:31;21.30;99.90
9201;DHT22;4635;48.686;9.008;2022-07-29T12:54:13;21.00;99.90
9201;DHT22;4635;48.686;9.008;2022-07-29T12:56:45;20.70;99.90
9201;DHT22;4635;48.686;9.008;2022-07-29T12:59:14;20.30;99.90
9201;DHT22;4635;48.686;9.008;2022-07-29T13:01:43;20.00;99.90
9201;DHT22;4635;48.686;9.008;2022-07-29T13:04:28;19.80;99.90
9201;DHT22;4635;48.686;9.008;2022-07-29T13:06:59;19.30;1.00
9201;DHT22;4635;48.686;9.008;2022-07-29T13:09:37;19.10;63.50
9201;DHT22;4635;48.686;9.008;2022-07-29T13:12:12;18.80;99.90
9201;DHT22;4635;48.686;9.008;2022-07-29T13:14:43;18.80;99.90
9201;DHT22;4635;48.686;9.008;2022-07-29T13:17:12;18.70;99.90
9201;DHT22;4635;48.686;9.008;2022-07-29T13:19:46;18.60;99.90
9201;DHT22;4635;48.686;9.008;2022-07-29T13:22:17;18.60;99.90
9201;DHT22;4635;48.686;9.008;2022-07-29T13:24:54;18.50;99.90
9201;DHT22;4635;48.686;9.008;2022-07-29T13:27:25;18.50;99.90
9201;DHT22;4635;48.686;9.008;2022-07-29T13:30:02;18.40;99.90
9201;DHT22;4635;48.686;9.008;2022-07-29T13:32:33;18.30;99.90
9201;DHT22;4635;48.686;9.008;2022-07-29T13:35:06;18.40;99.90
9201;DHT22;4635;48.686;9.008;2022-07-29T13:37:42;18.70;99.90
9201;DHT22;4635;48.686;9.008;2022-07-29T13:40:18;18.90;99.90
9201;DHT22;4635;48.686;9.008;2022-07-29T13:42:47;19.10;99.90
9201;DHT22;4635;48.686;9.008;2022-07-29T13:45:16;19.10;99.90
9201;DHT22;4635;48.686;9.008;2022-07-29T13:47:49;19.20;99.90
9201;DHT22;4635;48.686;9.008;2022-07-29T13:50:21;19.30;99.90
9201;DHT22;4635;48.686;9.008;2022-07-29T13:52:57;19.40;96.20
9201;DHT22;4635;48.686;9.008;2022-07-29T13:55:43;19.90;99.90
9201;DHT22;4635;48.686;9.008;2022-07-29T13:58:17;20.50;1.00
9201;DHT22;4635;48.686;9.008;2022-07-29T14:01:05;21.20;1.00
9201;DHT22;4635;48.686;9.008;2022-07-29T14:03:33;21.90;1.00
9201;DHT22;4635;48.686;9.008;2022-07-29T14:06:11;22.10;92.10
9201;DHT22;4635;48.686;9.008;2022-07-29T14:08:46;22.70;1.00
9201;DHT22;4635;48.686;9.008;2022-07-29T14:11:14;22.80;99.90
9201;DHT22;4635;48.686;9.008;2022-07-29T14:16:31;22.90;1.00
9201;DHT22;4635;48.686;9.008;2022-07-29T14:19:08;22.90;1.00
9201;DHT22;4635;48.686;9.008;2022-07-29T14:21:36;22.90;1.00
9201;DHT22;4635;48.686;9.008;2022-07-29T14:24:07;22.60;1.00
9201;DHT22;4635;48.686;9.008;2022-07-29T14:26:47;22.60;94.80
9201;DHT22;4635;48.686;9.008;2022-07-29T14:29:16;22.80;29.20
9201;DHT22;4635;48.686;9.008;2022-07-29T14:31:46;23.10;1.00
9201;DHT22;4635;48.686;9.008;2022-07-29T14:34:18;23.40;1.00
9201;DHT22;4635;48.686;9.008;2022-07-29T14:36:49;23.30;1.00
9201;DHT22;4635;48.686;9.008;2022-07-29T14:39:24;23.20;99.90
9201;DHT22;4635;48.686;9.008;2022-07-29T14:42:00;23.30;99.90
9201;DHT22;4635;48.686;9.008;2022-07-29T14:44:31;23.40;1.00
9201;DHT22;4635;48.686;9.008;2022-07-29T14:47:22;23.20;99.90
9201;DHT22;4635;48.686;9.008;2022-07-29T14:49:52;23.20;1.00
9201;DHT22;4635;48.686;9.008;2022-07-29T14:52:21;23.30;1.00
9201;DHT22;4635;48.686;9.008;2022-07-29T14:54:53;23.30;1.00
9201;DHT22;4635;48.686;9.008;2022-07-29T14:57:22;23.30;99.90
9201;DHT22;4635;48.686;9.008;2022-07-29T14:59:52;23.20;1.00
9201;DHT22;4635;48.686;9.008;2022-07-29T15:02:30;23.00;1.00
9201;DHT22;4635;48.686;9.008;2022-07-29T15:05:02;22.80;1.00
9201;DHT22;4635;48.686;9.008;2022-07-29T15:07:43;22.80;85.60
9201;DHT22;4635;48.686;9.008;2022-07-29T15:10:12;22.80;99.90
9201;DHT22;4635;48.686;9.008;2022-07-29T15:12:42;22.70;99.90
9201;DHT22;4635;48.686;9.008;2022-07-29T15:15:15;22.60;99.90
9201;DHT22;4635;48.686;9.008;2022-07-29T15:17:45;22.50;99.90
9201;DHT22;4635;48.686;9.008;2022-07-29T15:20:15;22.60;99.90
9201;DHT22;4635;48.686;9.008;2022-07-29T15:22:46;22.50;1.00
9201;DHT22;4635;48.686;9.008;2022-07-29T15:25:14;22.50;1.00
9201;DHT22;4635;48.686;9.008;2022-07-29T15:27:44;22.50;1.00
9201;DHT22;4635;48.686;9.008;2022-07-29T15:30:18;22.50;99.20
9201;DHT22;4635;48.686;9.008;2022-07-29T15:32:51;22.50;1.00
9201;DHT22;4635;48.686;9.008;2022-07-29T15:35:18;22.60;1.00
9201;DHT22;4635;48.686;9.008;2022-07-29T15:37:48;22.50;1.00
9201;DHT22;4635;48.686;9.008;2022-07-29T15:40:21;22.50;1.00
9201;DHT22;4635;48.686;9.008;2022-07-29T15:42:49;22.60;1.00
9201;DHT22;4635;48.686;9.008;2022-07-29T15:45:40;22.70;99.90
9201;DHT22;4635;48.686;9.008;2022-07-29T15:48:28;22.70;17.60
9201;DHT22;4635;48.686;9.008;2022-07-29T15:51:00;22.60;1.00
9201;DHT22;4635;48.686;9.008;2022-07-29T15:53:55;22.80;99.90
9201;DHT22;4635;48.686;9.008;2022-07-29T15:56:23;22.70;99.90
9201;DHT22;4635;48.686;9.008;2022-07-29T15:58:53;22.90;99.90
9201;DHT22;4635;48.686;9.008;2022-07-29T16:01:31;23.10;1.00
9201;DHT22;4635;48.686;9.008;2022-07-29T16:04:13;23.20;99.90
9201;DHT22;4635;48.686;9.008;2022-07-29T16:06:59;23.40;99.90
9201;DHT22;4635;48.686;9.008;2022-07-29T16:09:27;23.60;99.90
9201;DHT22;4635;48.686;9.008;2022-07-29T16:11:56;23.60;99.90
9201;DHT22;4635;48.686;9.008;2022-07-29T16:14:33;23.60;99.90
9201;DHT22;4635;48.686;9.008;2022-07-29T16:17:07;23.80;99.90
9201;DHT22;4635;48.686;9.008;2022-07-29T16:19:38;24.10;77.20
9201;DHT22;4635;48.686;9.008;2022-07-29T16:22:07;23.80;1.00
9201;DHT22;4635;48.686;9.008;2022-07-29T16:24:38;23.50;1.00
9201;DHT22;4635;48.686;9.008;2022-07-29T16:27:06;23.60;1.00
9201;DHT22;4635;48.686;9.008;2022-07-29T16:29:34;23.80;1.00
9201;DHT22;4635;48.686;9.008;2022-07-29T16:32:17;23.90;1.00
9201;DHT22;4635;48.686;9.008;2022-07-29T16:34:44;23.90;1.00
9201;DHT22;4635;48.686;9.008;2022-07-29T16:37:19;23.80;99.90
9201;DHT22;4635;48.686;9.008;2022-07-29T16:39:47;23.80;99.90
9201;DHT22;4635;48.686;9.008;2022-07-29T16:42:19;23.80;48.90
9201;DHT22;4635;48.686;9.008;2022-07-29T16:44:50;23.80;99.90
9201;DHT22;4635;48.686;9.008;2022-07-29T16:47:23;23.70;56.60
9201;DHT22;4635;48.686;9.008;2022-07-29T16:49:52;23.70;1.00
9201;DHT22;4635;48.686;9.008;2022-07-29T16:52:21;23.70;99.90
9201;DHT22;4635;48.686;9.008;2022-07-29T16:54:51;23.60;99.90
9201;DHT22;4635;48.686;9.008;2022-07-29T16:57:18;23.60;99.90
9201;DHT22;4635;48.686;9.008;2022-07-29T16:59:46;23.70;99.90
9201;DHT22;4635;48.686;9.008;2022-07-29T17:02:36;23.70;99.90
9201;DHT22;4635;48.686;9.008;2022-07-29T17:05:05;23.70;99.90
9201;DHT22;4635;48.686;9.008;2022-07-29T17:07:38;23.70;1.00
9201;DHT22;4635;48.686;9.008;2022-07-29T17:10:19;23.70;99.90
9201;DHT22;4635;48.686;9.008;2022-07-29T17:12:47;23.60;99.90
9201;DHT22;4635;48.686;9.008;2022-07-29T17:15:16;23.80;1.00
9201;DHT22;4635;48.686;9.008;2022-07-29T17:17:45;23.80;1.00
9201;DHT22;4635;48.686;9.008;2022-07-29T17:20:14;23.80;1.00
9201;DHT22;4635;48.686;9.008;2022-07-29T17:22:41;23.70;99.90
9201;DHT22;4635;48.686;9.008;2022-07-29T17:25:09;23.70;99.90
9201;DHT22;4635;48.686;9.008;2022-07-29T17:27:38;23.60;99.90